createdAt,value
2023-07-11T00:00:02.796Z,20.00
2023-07-11T00:01:03.248Z,20.00
2023-07-11T00:02:03.008Z,19.90
2023-07-11T00:03:03.406Z,19.90
2023-07-11T00:04:02.640Z,19.90
2023-07-11T00:05:03.360Z,19.90
2023-07-11T00:06:03.531Z,19.90
2023-07-11T00:07:03.550Z,19.90
2023-07-11T00:08:03.601Z,19.80
2023-07-11T00:09:02.802Z,19.80
2023-07-11T00:10:03.647Z,19.80
2023-07-11T00:11:03.558Z,19.80
2023-07-11T00:12:03.546Z,19.80
2023-07-11T00:13:03.629Z,19.80
2023-07-11T00:14:02.855Z,19.80
2023-07-11T00:15:03.577Z,19.70
2023-07-11T00:16:03.351Z,19.70
2023-07-11T00:17:02.951Z,19.70
2023-07-11T00:18:02.669Z,19.70
2023-07-11T00:19:03.435Z,19.70
2023-07-11T00:20:03.560Z,19.70
2023-07-11T00:21:03.167Z,19.70
2023-07-11T00:22:02.953Z,19.70
2023-07-11T00:23:02.634Z,19.70
2023-07-11T00:24:02.764Z,19.70
2023-07-11T00:25:02.770Z,19.60
2023-07-11T00:26:02.874Z,19.60
2023-07-11T00:27:03.527Z,19.60
2023-07-11T00:28:03.239Z,19.60
2023-07-11T00:29:03.289Z,19.60
2023-07-11T00:30:03.000Z,19.60
2023-07-11T00:31:03.191Z,19.60
2023-07-11T00:32:03.336Z,19.60
2023-07-11T00:33:03.112Z,19.50
2023-07-11T00:34:02.831Z,19.50
2023-07-11T00:35:03.538Z,19.50
2023-07-11T00:36:02.649Z,19.50
2023-07-11T00:37:03.338Z,19.50
2023-07-11T00:38:02.944Z,19.50
2023-07-11T00:39:02.782Z,19.50
2023-07-11T00:40:03.386Z,19.50
2023-07-11T00:41:02.994Z,19.50
2023-07-11T00:42:03.126Z,19.40
2023-07-11T00:43:03.293Z,19.40
2023-07-11T00:44:03.206Z,19.40
2023-07-11T00:45:02.873Z,19.40
2023-07-11T00:46:03.989Z,19.40
2023-07-11T00:47:03.416Z,19.40
2023-07-11T00:48:03.282Z,19.30
2023-07-11T00:49:03.040Z,19.30
2023-07-11T00:50:03.069Z,19.30
2023-07-11T00:51:03.588Z,19.30
2023-07-11T00:52:03.584Z,19.30
2023-07-11T00:53:03.605Z,19.30
2023-07-11T00:54:02.597Z,19.30
2023-07-11T00:55:03.232Z,19.30
2023-07-11T00:56:03.164Z,19.20
2023-07-11T00:57:02.926Z,19.20
2023-07-11T00:58:03.619Z,19.20
2023-07-11T00:59:03.261Z,19.20
2023-07-11T01:00:03.252Z,19.20
2023-07-11T01:01:03.345Z,19.20
2023-07-11T01:02:03.046Z,19.20
2023-07-11T01:03:02.920Z,19.10
2023-07-11T01:04:02.915Z,19.10
2023-07-11T01:05:02.689Z,19.10
2023-07-11T01:06:03.377Z,19.10
2023-07-11T01:07:02.765Z,19.10
2023-07-11T01:08:03.271Z,19.10
2023-07-11T01:09:03.011Z,19.00
2023-07-11T01:10:03.347Z,19.00
2023-07-11T01:11:03.159Z,19.00
2023-07-11T01:12:02.857Z,19.00
2023-07-11T01:13:02.954Z,19.00
2023-07-11T01:14:03.675Z,19.00
2023-07-11T01:15:03.570Z,19.00
2023-07-11T01:16:03.509Z,19.00
2023-07-11T01:17:03.021Z,18.90
2023-07-11T01:18:02.978Z,18.90
2023-07-11T01:19:03.226Z,18.90
2023-07-11T01:20:03.240Z,18.90
2023-07-11T01:21:03.229Z,18.90
2023-07-11T01:22:02.780Z,18.90
2023-07-11T01:23:03.483Z,18.90
2023-07-11T01:24:03.561Z,18.80
2023-07-11T01:25:02.660Z,18.80
2023-07-11T01:26:03.573Z,18.80
2023-07-11T01:27:03.016Z,18.80
2023-07-11T01:28:03.053Z,18.80
2023-07-11T01:29:03.622Z,18.80
2023-07-11T01:30:03.200Z,18.80
2023-07-11T01:31:03.220Z,18.70
2023-07-11T01:32:02.893Z,18.70
2023-07-11T01:33:03.540Z,18.70
2023-07-11T01:34:03.300Z,18.70
2023-07-11T01:35:03.415Z,18.70
2023-07-11T01:36:03.278Z,18.60
2023-07-11T01:37:02.869Z,18.60
2023-07-11T01:38:02.937Z,18.60
2023-07-11T01:39:02.694Z,18.60
2023-07-11T01:40:03.337Z,18.60
2023-07-11T01:41:03.009Z,18.60
2023-07-11T01:42:03.056Z,18.60
2023-07-11T01:43:03.568Z,18.50
2023-07-11T01:44:03.080Z,18.50
2023-07-11T01:45:02.780Z,18.50
2023-07-11T01:46:03.580Z,18.50
2023-07-11T01:47:02.795Z,18.50
2023-07-11T01:48:03.481Z,18.50
2023-07-11T01:49:03.495Z,18.50
2023-07-11T01:50:03.274Z,18.50
2023-07-11T01:51:02.808Z,18.50
2023-07-11T01:52:02.809Z,18.50
2023-07-11T01:53:03.446Z,18.50
2023-07-11T01:54:03.061Z,18.50
2023-07-11T01:55:02.868Z,18.50
2023-07-11T01:56:02.715Z,18.40
2023-07-11T01:57:02.821Z,18.40
2023-07-11T01:58:02.837Z,18.40
2023-07-11T01:59:03.603Z,18.40
2023-07-11T02:00:02.753Z,18.40
2023-07-11T02:01:03.295Z,18.40
2023-07-11T02:02:03.319Z,18.40
2023-07-11T02:03:03.179Z,18.40
2023-07-11T02:04:02.663Z,18.30
2023-07-11T02:05:02.701Z,18.30
2023-07-11T02:06:02.647Z,18.30
2023-07-11T02:07:03.553Z,18.30
2023-07-11T02:08:02.857Z,18.30
2023-07-11T02:09:02.930Z,18.30
2023-07-11T02:10:02.660Z,18.30
2023-07-11T02:11:03.418Z,18.30
2023-07-11T02:12:03.105Z,18.30
2023-07-11T02:13:03.650Z,18.20
2023-07-11T02:14:03.212Z,18.20
2023-07-11T02:15:03.387Z,18.20
2023-07-11T02:16:03.467Z,18.20
2023-07-11T02:17:03.566Z,18.20
2023-07-11T02:18:02.756Z,18.20
2023-07-11T02:19:02.925Z,18.20
2023-07-11T02:20:03.546Z,18.20
2023-07-11T02:21:02.656Z,18.20
2023-07-11T02:22:02.647Z,18.10
2023-07-11T02:23:03.287Z,18.20
2023-07-11T02:24:03.433Z,18.10
2023-07-11T02:25:03.082Z,18.10
2023-07-11T02:26:02.909Z,18.10
2023-07-11T02:27:03.442Z,18.10
2023-07-11T02:28:03.037Z,18.10
2023-07-11T02:29:02.726Z,18.10
2023-07-11T02:30:03.502Z,18.00
2023-07-11T02:31:03.017Z,18.00
2023-07-11T02:32:02.669Z,18.00
2023-07-11T02:33:02.734Z,18.00
2023-07-11T02:34:03.545Z,18.00
2023-07-11T02:35:03.072Z,18.00
2023-07-11T02:36:03.104Z,18.00
2023-07-11T02:37:03.006Z,18.00
2023-07-11T02:38:02.681Z,17.90
2023-07-11T02:39:03.460Z,17.90
2023-07-11T02:40:03.118Z,17.90
2023-07-11T02:41:02.904Z,17.90
2023-07-11T02:42:02.910Z,17.90
2023-07-11T02:43:03.630Z,17.90
2023-07-11T02:44:02.705Z,17.90
2023-07-11T02:45:03.340Z,17.90
2023-07-11T02:46:03.105Z,17.80
2023-07-11T02:47:03.126Z,17.80
2023-07-11T02:48:02.735Z,17.80
2023-07-11T02:49:04.724Z,17.80
2023-07-11T02:50:03.496Z,17.80
2023-07-11T02:51:03.192Z,17.80
2023-07-11T02:52:02.830Z,17.80
2023-07-11T02:53:02.868Z,17.80
2023-07-11T02:54:02.877Z,17.80
2023-07-11T02:55:02.835Z,17.80
2023-07-11T02:56:02.919Z,17.80
2023-07-11T02:57:02.969Z,17.80
2023-07-11T02:58:02.676Z,17.80
2023-07-11T02:59:03.352Z,17.80
2023-07-11T03:00:03.013Z,17.80
2023-07-11T03:01:04.405Z,17.80
2023-07-11T03:02:02.939Z,17.80
2023-07-11T03:03:03.496Z,17.80
2023-07-11T03:04:02.765Z,17.70
2023-07-11T03:05:03.479Z,17.70
2023-07-11T03:06:03.111Z,17.70
2023-07-11T03:07:03.035Z,17.70
2023-07-11T03:08:02.616Z,17.70
2023-07-11T03:09:03.367Z,17.70
2023-07-11T03:10:02.964Z,17.70
2023-07-11T03:11:03.487Z,17.70
2023-07-11T03:12:03.127Z,17.70
2023-07-11T03:13:03.109Z,17.70
2023-07-11T03:14:02.787Z,17.70
2023-07-11T03:15:04.745Z,17.70
2023-07-11T03:16:03.339Z,17.70
2023-07-11T03:17:02.947Z,17.70
2023-07-11T03:18:02.648Z,17.70
2023-07-11T03:19:03.594Z,17.70
2023-07-11T03:20:03.236Z,17.70
2023-07-11T03:21:02.812Z,17.70
2023-07-11T03:22:03.560Z,17.70
2023-07-11T03:23:03.454Z,17.70
2023-07-11T03:24:03.457Z,17.70
2023-07-11T03:25:03.073Z,17.70
2023-07-11T03:26:03.215Z,17.70
2023-07-11T03:27:02.935Z,17.70
2023-07-11T03:28:02.986Z,17.70
2023-07-11T03:29:03.152Z,17.70
2023-07-11T03:30:03.267Z,17.70
2023-07-11T03:31:03.005Z,17.70
2023-07-11T03:32:03.040Z,17.70
2023-07-11T03:33:02.843Z,17.70
2023-07-11T03:34:02.605Z,17.70
2023-07-11T03:35:04.081Z,17.70
2023-07-11T03:36:03.483Z,17.70
2023-07-11T03:37:02.736Z,17.60
2023-07-11T03:38:02.751Z,17.60
2023-07-11T03:39:02.629Z,17.60
2023-07-11T03:40:03.293Z,17.60
2023-07-11T03:41:03.363Z,17.60
2023-07-11T03:42:02.885Z,17.60
2023-07-11T03:43:03.429Z,17.60
2023-07-11T03:44:03.335Z,17.60
2023-07-11T03:45:03.403Z,17.60
2023-07-11T03:46:03.060Z,17.60
2023-07-11T03:47:02.961Z,17.60
2023-07-11T03:48:03.566Z,17.60
2023-07-11T03:49:03.304Z,17.60
2023-07-11T03:50:02.939Z,17.60
2023-07-11T03:51:03.538Z,17.60
2023-07-11T03:52:03.241Z,17.60
2023-07-11T03:53:02.854Z,17.60
2023-07-11T03:54:03.447Z,17.60
2023-07-11T03:55:03.216Z,17.60
2023-07-11T03:56:03.240Z,17.60
2023-07-11T03:57:03.189Z,17.70
2023-07-11T03:58:02.806Z,17.70
2023-07-11T03:59:02.857Z,17.70
2023-07-11T04:00:03.583Z,17.70
2023-07-11T04:01:03.690Z,17.70
2023-07-11T04:02:02.747Z,17.80
2023-07-11T04:03:03.612Z,17.90
2023-07-11T04:04:02.899Z,17.90
2023-07-11T04:05:03.560Z,18.00
2023-07-11T04:06:03.230Z,18.10
2023-07-11T04:07:02.865Z,18.10
2023-07-11T04:08:03.525Z,18.20
2023-07-11T04:09:03.066Z,18.30
2023-07-11T04:10:03.160Z,18.40
2023-07-11T04:11:03.324Z,18.40
2023-07-11T04:12:03.287Z,18.50
2023-07-11T04:13:03.309Z,18.60
2023-07-11T04:14:03.362Z,18.70
2023-07-11T04:15:02.728Z,18.80
2023-07-11T04:16:02.971Z,18.90
2023-07-11T04:17:03.500Z,19.00
2023-07-11T04:18:03.560Z,19.10
2023-07-11T04:19:02.806Z,19.20
2023-07-11T04:20:03.480Z,19.20
2023-07-11T04:21:03.542Z,19.30
2023-07-11T04:22:03.083Z,19.40
2023-07-11T04:23:02.647Z,19.50
2023-07-11T04:24:02.725Z,19.50
2023-07-11T04:25:03.591Z,19.60
2023-07-11T04:26:03.591Z,19.70
2023-07-11T04:27:03.194Z,19.80
2023-07-11T04:28:03.541Z,19.80
2023-07-11T04:29:02.652Z,19.90
2023-07-11T04:30:03.220Z,20.00
2023-07-11T04:31:02.919Z,20.10
2023-07-11T04:32:03.605Z,20.20
2023-07-11T04:33:03.192Z,20.20
2023-07-11T04:34:03.217Z,20.30
2023-07-11T04:35:03.046Z,20.40
2023-07-11T04:36:02.746Z,20.50
2023-07-11T04:37:02.705Z,20.50
2023-07-11T04:38:03.319Z,20.60
2023-07-11T04:39:03.125Z,20.70
2023-07-11T04:40:03.362Z,20.80
2023-07-11T04:41:03.222Z,20.80
2023-07-11T04:42:02.667Z,20.90
2023-07-11T04:43:03.522Z,21.00
2023-07-11T04:44:03.543Z,21.10
2023-07-11T04:45:03.286Z,21.20
2023-07-11T04:46:03.094Z,21.20
2023-07-11T04:47:03.290Z,21.30
2023-07-11T04:48:03.444Z,21.40
2023-07-11T04:49:03.152Z,21.50
2023-07-11T04:50:03.593Z,21.50
2023-07-11T04:51:03.223Z,21.60
2023-07-11T04:52:03.687Z,21.70
2023-07-11T04:53:03.276Z,21.80
2023-07-11T04:54:02.891Z,21.90
2023-07-11T04:55:03.547Z,22.00
2023-07-11T04:56:03.312Z,22.10
2023-07-11T04:57:03.148Z,22.10
2023-07-11T04:58:02.968Z,22.20
2023-07-11T04:59:03.666Z,22.30
2023-07-11T05:00:02.618Z,22.40
2023-07-11T05:01:02.785Z,22.40
2023-07-11T05:02:03.471Z,22.50
2023-07-11T05:03:03.377Z,22.60
2023-07-11T05:04:02.997Z,22.70
2023-07-11T05:05:02.753Z,22.80
2023-07-11T05:06:02.881Z,22.90
2023-07-11T05:07:02.823Z,23.00
2023-07-11T05:08:03.560Z,23.10
2023-07-11T05:09:03.001Z,23.20
2023-07-11T05:10:03.090Z,23.30
2023-07-11T05:11:03.160Z,23.40
2023-07-11T05:12:03.067Z,23.40
2023-07-11T05:13:02.736Z,23.50
2023-07-11T05:14:02.883Z,23.50
2023-07-11T05:15:03.669Z,23.60
2023-07-11T05:16:03.506Z,23.60
2023-07-11T05:17:03.904Z,23.70
2023-07-11T05:18:03.639Z,23.70
2023-07-11T05:19:02.819Z,23.80
2023-07-11T05:20:03.396Z,23.80
2023-07-11T05:21:03.062Z,23.90
2023-07-11T05:22:02.638Z,24.00
2023-07-11T05:23:03.283Z,24.10
2023-07-11T05:24:03.245Z,24.10
2023-07-11T05:25:02.711Z,24.20
2023-07-11T05:26:03.229Z,24.30
2023-07-11T05:27:03.528Z,24.40
2023-07-11T05:28:03.196Z,24.50
2023-07-11T05:29:03.198Z,24.60
2023-07-11T05:30:02.810Z,24.70
2023-07-11T05:31:02.910Z,24.80
2023-07-11T05:32:02.945Z,24.90
2023-07-11T05:33:02.874Z,25.00
2023-07-11T05:34:02.765Z,25.10
2023-07-11T05:35:02.788Z,25.20
2023-07-11T05:36:03.767Z,25.30
2023-07-11T05:37:02.788Z,25.40
2023-07-11T05:38:02.908Z,25.50
2023-07-11T05:39:03.424Z,25.60
2023-07-11T05:40:03.257Z,25.70
2023-07-11T05:41:03.103Z,25.70
2023-07-11T05:42:02.742Z,25.80
2023-07-11T05:43:03.451Z,25.80
2023-07-11T05:44:02.950Z,25.90
2023-07-11T05:45:02.903Z,25.90
2023-07-11T05:46:03.592Z,25.90
2023-07-11T05:47:03.355Z,26.00
2023-07-11T05:48:02.973Z,26.10
2023-07-11T05:49:02.730Z,26.10
2023-07-11T05:50:02.842Z,26.20
2023-07-11T05:51:03.529Z,26.30
2023-07-11T05:52:03.212Z,26.30
2023-07-11T05:53:02.949Z,26.40
2023-07-11T05:54:03.593Z,26.50
2023-07-11T05:55:03.541Z,26.60
2023-07-11T05:56:03.125Z,26.60
2023-07-11T05:57:02.992Z,26.70
2023-07-11T05:58:03.118Z,26.80
2023-07-11T05:59:02.723Z,26.90
2023-07-11T06:00:03.486Z,26.90
2023-07-11T06:01:03.436Z,27.00
2023-07-11T06:02:03.669Z,27.10
2023-07-11T06:03:02.706Z,27.10
2023-07-11T06:04:02.894Z,27.20
2023-07-11T06:05:03.156Z,27.20
2023-07-11T06:06:02.682Z,27.30
2023-07-11T06:07:03.226Z,27.40
2023-07-11T06:08:02.851Z,27.40
2023-07-11T06:09:03.478Z,27.50
2023-07-11T06:10:03.047Z,27.50
2023-07-11T06:11:03.072Z,27.50
2023-07-11T06:12:02.820Z,27.60
2023-07-11T06:13:03.497Z,27.60
2023-07-11T06:14:03.651Z,27.70
2023-07-11T06:15:02.772Z,27.70
2023-07-11T06:16:02.954Z,27.80
2023-07-11T06:17:03.657Z,27.90
2023-07-11T06:18:03.519Z,27.90
2023-07-11T06:19:03.558Z,28.00
2023-07-11T06:20:03.128Z,28.10
2023-07-11T06:21:03.154Z,28.20
2023-07-11T06:22:02.773Z,28.20
2023-07-11T06:23:03.370Z,28.30
2023-07-11T06:24:03.613Z,28.40
2023-07-11T06:25:03.382Z,28.50
2023-07-11T06:26:03.109Z,28.60
2023-07-11T06:27:03.436Z,28.70
2023-07-11T06:28:03.530Z,28.80
2023-07-11T06:29:03.518Z,28.80
2023-07-11T06:30:03.183Z,28.90
2023-07-11T06:31:04.420Z,28.90
2023-07-11T06:32:03.447Z,28.90
2023-07-11T06:33:03.141Z,28.80
2023-07-11T06:34:02.989Z,28.80
2023-07-11T06:35:03.568Z,28.80
2023-07-11T06:36:03.548Z,28.70
2023-07-11T06:37:03.339Z,28.70
2023-07-11T06:38:03.334Z,28.70
2023-07-11T06:39:02.922Z,28.70
2023-07-11T06:40:03.038Z,28.70
2023-07-11T06:41:03.445Z,28.70
2023-07-11T06:42:03.621Z,28.70
2023-07-11T06:43:03.419Z,28.80
2023-07-11T06:44:03.082Z,28.80
2023-07-11T06:45:02.868Z,28.80
2023-07-11T06:46:03.514Z,28.80
2023-07-11T06:47:03.562Z,28.80
2023-07-11T06:48:03.084Z,28.80
2023-07-11T06:49:04.470Z,28.90
2023-07-11T06:50:03.441Z,28.90
2023-07-11T06:51:03.110Z,28.90
2023-07-11T06:52:03.635Z,28.90
2023-07-11T06:53:02.899Z,28.90
2023-07-11T06:54:03.569Z,28.90
2023-07-11T06:55:03.341Z,28.90
2023-07-11T06:56:03.442Z,29.00
2023-07-11T06:57:03.272Z,29.00
2023-07-11T06:58:02.825Z,29.00
2023-07-11T06:59:02.877Z,29.00
2023-07-11T07:00:02.903Z,29.00
2023-07-11T07:01:03.448Z,29.10
2023-07-11T07:02:03.171Z,29.10
2023-07-11T07:03:03.257Z,29.10
2023-07-11T07:04:05.531Z,29.10
2023-07-11T07:05:03.891Z,29.10
2023-07-11T07:06:02.789Z,29.10
2023-07-11T07:07:03.582Z,29.10
2023-07-11T07:08:13.850Z,29.10
2023-07-11T07:09:03.452Z,29.10
2023-07-11T07:10:03.562Z,29.10
2023-07-11T07:11:03.331Z,29.10
2023-07-11T07:12:03.230Z,29.10
2023-07-11T07:13:02.969Z,29.10
2023-07-11T07:14:05.921Z,29.10
2023-07-11T07:15:02.911Z,29.10
2023-07-11T07:16:02.950Z,29.20
2023-07-11T07:17:03.635Z,29.30
2023-07-11T07:18:03.459Z,29.30
2023-07-11T07:19:03.497Z,29.40
2023-07-11T07:20:03.646Z,29.50
2023-07-11T07:21:02.702Z,29.50
2023-07-11T07:22:03.402Z,29.60
2023-07-11T07:23:03.113Z,29.50
2023-07-11T07:24:02.683Z,29.50
2023-07-11T07:25:12.311Z,29.50
2023-07-11T07:26:03.587Z,29.50
2023-07-11T07:27:08.568Z,29.60
2023-07-11T07:28:03.512Z,29.60
2023-07-11T07:29:03.462Z,29.70
2023-07-11T07:30:02.757Z,29.70
2023-07-11T07:31:02.905Z,29.70
2023-07-11T07:32:03.047Z,29.70
2023-07-11T07:33:02.716Z,29.70
2023-07-11T07:34:03.656Z,29.70
2023-07-11T07:35:03.228Z,29.70
2023-07-11T07:36:02.675Z,29.70
2023-07-11T07:37:03.330Z,29.70
2023-07-11T07:38:03.121Z,29.70
2023-07-11T07:39:03.150Z,29.70
2023-07-11T07:40:02.812Z,29.70
2023-07-11T07:41:03.414Z,29.70
2023-07-11T07:42:03.647Z,29.60
2023-07-11T07:43:02.623Z,29.70
2023-07-11T07:44:02.720Z,29.70
2023-07-11T07:45:03.288Z,29.70
2023-07-11T07:46:03.257Z,29.70
2023-07-11T07:47:03.578Z,29.80
2023-07-11T07:48:03.422Z,29.70
2023-07-11T07:49:03.272Z,29.70
2023-07-11T07:50:02.838Z,29.70
2023-07-11T07:51:03.778Z,29.70
2023-07-11T07:52:02.968Z,29.70
2023-07-11T07:53:03.502Z,29.80
2023-07-11T07:54:03.111Z,29.80
2023-07-11T07:55:03.192Z,29.90
2023-07-11T07:56:03.326Z,29.90
2023-07-11T07:57:03.252Z,30.00
2023-07-11T07:58:03.247Z,30.00
2023-07-11T07:59:02.807Z,30.10
2023-07-11T08:00:02.926Z,30.10
2023-07-11T08:01:03.585Z,30.10
2023-07-11T08:02:03.484Z,30.20
2023-07-11T08:03:02.957Z,30.20
2023-07-11T08:04:03.145Z,30.20
2023-07-11T08:05:02.706Z,30.30
2023-07-11T08:06:13.949Z,30.30
2023-07-11T08:07:03.024Z,30.40
2023-07-11T08:08:03.136Z,30.40
2023-07-11T08:09:03.356Z,30.40
2023-07-11T08:10:03.502Z,30.40
2023-07-11T08:11:03.230Z,30.40
2023-07-11T08:12:03.533Z,30.40
2023-07-11T08:13:03.658Z,30.40
2023-07-11T08:14:03.552Z,30.50
2023-07-11T08:15:03.349Z,30.50
2023-07-11T08:16:12.080Z,30.50
2023-07-11T08:17:03.411Z,30.50
2023-07-11T08:18:03.220Z,30.50
2023-07-11T08:19:03.041Z,30.50
2023-07-11T08:20:03.035Z,30.50
2023-07-11T08:21:02.737Z,30.50
2023-07-11T08:22:03.453Z,30.50
2023-07-11T08:23:03.689Z,30.50
2023-07-11T08:24:03.186Z,30.60
2023-07-11T08:25:02.962Z,30.60
2023-07-11T08:26:03.320Z,30.60
2023-07-11T08:27:03.367Z,30.60
2023-07-11T08:28:03.176Z,30.70
2023-07-11T08:29:10.023Z,30.70
2023-07-11T08:30:02.789Z,30.70
2023-07-11T08:31:03.448Z,30.70
2023-07-11T08:32:03.329Z,30.70
2023-07-11T08:33:03.424Z,30.80
2023-07-11T08:34:03.492Z,30.70
2023-07-11T08:35:03.158Z,30.80
2023-07-11T08:36:02.823Z,30.80
2023-07-11T08:37:03.048Z,30.80
2023-07-11T08:38:04.579Z,30.80
2023-07-11T08:39:03.178Z,30.80
2023-07-11T08:40:03.278Z,30.90
2023-07-11T08:41:03.513Z,30.90
2023-07-11T08:42:03.196Z,31.00
2023-07-11T08:43:02.786Z,31.00
2023-07-11T08:44:02.980Z,31.10
2023-07-11T08:45:05.274Z,31.10
2023-07-11T08:46:12.219Z,31.10
2023-07-11T08:47:03.320Z,31.20
2023-07-11T08:48:06.638Z,31.20
2023-07-11T08:49:03.525Z,31.20
2023-07-11T08:50:02.759Z,31.20
2023-07-11T08:51:02.857Z,31.20
2023-07-11T08:52:03.389Z,31.20
2023-07-11T08:53:03.139Z,31.20
2023-07-11T08:54:02.618Z,31.20
2023-07-11T08:55:03.375Z,31.10
2023-07-11T08:56:03.065Z,31.10
2023-07-11T08:57:02.849Z,31.00
2023-07-11T08:58:03.536Z,31.00
2023-07-11T08:59:03.518Z,30.90
2023-07-11T09:00:03.346Z,30.90
2023-07-11T09:01:03.513Z,30.90
2023-07-11T09:02:03.054Z,30.90
2023-07-11T09:03:03.164Z,30.90
2023-07-11T09:04:03.272Z,30.90
2023-07-11T09:05:02.923Z,31.00
2023-07-11T09:06:03.573Z,31.00
2023-07-11T09:07:03.411Z,31.00
2023-07-11T09:08:03.042Z,31.10
2023-07-11T09:09:03.174Z,31.10
2023-07-11T09:10:03.362Z,31.10
2023-07-11T09:11:02.915Z,31.20
2023-07-11T09:12:03.168Z,31.20
2023-07-11T09:13:10.441Z,31.20
2023-07-11T09:14:03.598Z,31.30
2023-07-11T09:15:03.322Z,31.30
2023-07-11T09:16:02.882Z,31.30
2023-07-11T09:17:03.201Z,31.30
2023-07-11T09:18:03.360Z,31.30
2023-07-11T09:19:03.292Z,31.40
2023-07-11T09:20:02.836Z,31.30
2023-07-11T09:21:02.834Z,31.30
2023-07-11T09:22:03.604Z,31.40
2023-07-11T09:23:03.333Z,31.40
2023-07-11T09:24:20.250Z,31.40
2023-07-11T09:25:02.695Z,31.40
2023-07-11T09:26:03.631Z,31.40
2023-07-11T09:27:03.433Z,31.50
2023-07-11T09:28:03.209Z,31.50
2023-07-11T09:29:02.716Z,31.50
2023-07-11T09:30:03.373Z,31.50
2023-07-11T09:31:03.220Z,31.50
2023-07-11T09:32:03.098Z,31.50
2023-07-11T09:33:02.962Z,31.40
2023-07-11T09:34:03.115Z,31.40
2023-07-11T09:35:02.837Z,31.40
2023-07-11T09:36:02.865Z,31.40
2023-07-11T09:37:03.426Z,31.50
2023-07-11T09:38:03.005Z,31.50
2023-07-11T09:39:02.696Z,31.50
2023-07-11T09:40:03.422Z,31.50
2023-07-11T09:41:03.374Z,31.60
2023-07-11T09:42:03.164Z,31.60
2023-07-11T09:43:02.951Z,31.60
2023-07-11T09:44:02.785Z,31.60
2023-07-11T09:45:03.471Z,31.60
2023-07-11T09:46:02.926Z,31.50
2023-07-11T09:47:03.564Z,31.50
2023-07-11T09:48:03.718Z,31.50
2023-07-11T09:49:03.238Z,31.40
2023-07-11T09:50:02.944Z,31.40
2023-07-11T09:52:03.212Z,31.50
2023-07-11T09:53:02.850Z,31.50
2023-07-11T09:54:04.844Z,31.50
2023-07-11T09:55:09.197Z,31.50
2023-07-11T09:56:11.927Z,31.60
2023-07-11T09:57:02.955Z,31.60
2023-07-11T09:58:02.651Z,31.60
2023-07-11T09:59:03.458Z,31.60
2023-07-11T10:00:16.305Z,31.60
2023-07-11T10:01:02.985Z,31.70
2023-07-11T10:02:03.654Z,31.70
2023-07-11T10:03:03.286Z,31.70
2023-07-11T10:04:03.216Z,31.70
2023-07-11T10:05:03.447Z,31.70
2023-07-11T10:06:03.259Z,31.80
2023-07-11T10:07:03.691Z,31.80
2023-07-11T10:08:03.411Z,31.90
2023-07-11T10:09:03.415Z,32.00
2023-07-11T10:10:02.753Z,32.00
2023-07-11T10:11:02.884Z,32.10
2023-07-11T10:12:03.354Z,32.10
2023-07-11T10:13:03.383Z,32.10
2023-07-11T10:14:03.102Z,32.20
2023-07-11T10:15:02.934Z,32.20
2023-07-11T10:16:03.642Z,32.20
2023-07-11T10:17:02.817Z,32.20
2023-07-11T10:18:03.353Z,32.20
2023-07-11T10:19:03.200Z,32.20
2023-07-11T10:20:12.483Z,32.20
2023-07-11T10:21:03.478Z,32.20
2023-07-11T10:22:03.094Z,32.20
2023-07-11T10:23:03.172Z,32.20
2023-07-11T10:24:03.227Z,32.30
2023-07-11T10:25:03.308Z,32.30
2023-07-11T10:26:02.889Z,32.30
2023-07-11T10:27:03.100Z,32.30
2023-07-11T10:28:02.784Z,32.40
2023-07-11T10:29:06.288Z,32.40
2023-07-11T10:30:03.225Z,32.40
2023-07-11T10:31:02.994Z,32.40
2023-07-11T10:32:03.587Z,32.50
2023-07-11T10:33:08.812Z,32.50
2023-07-11T10:34:03.451Z,32.50
2023-07-11T10:35:03.607Z,32.50
2023-07-11T10:36:03.550Z,32.50
2023-07-11T10:37:03.326Z,32.60
2023-07-11T10:38:03.471Z,32.60
2023-07-11T10:39:03.430Z,32.60
2023-07-11T10:40:03.471Z,32.60
2023-07-11T10:41:02.996Z,32.60
2023-07-11T10:42:03.073Z,32.60
2023-07-11T10:43:03.161Z,32.60
2023-07-11T10:44:02.658Z,32.60
2023-07-11T10:45:02.807Z,32.70
2023-07-11T10:46:02.829Z,32.70
2023-07-11T10:47:03.613Z,32.70
2023-07-11T10:48:02.852Z,32.70
2023-07-11T10:49:02.979Z,32.70
2023-07-11T10:50:03.513Z,32.80
2023-07-11T10:51:03.128Z,32.80
2023-07-11T10:52:03.228Z,32.70
2023-07-11T10:53:03.180Z,32.70
2023-07-11T10:54:02.743Z,32.70
2023-07-11T10:55:03.513Z,32.80
2023-07-11T10:56:03.185Z,32.80
2023-07-11T10:57:02.978Z,32.80
2023-07-11T10:58:03.048Z,32.80
2023-07-11T10:59:02.825Z,32.90
2023-07-11T11:00:02.702Z,32.90
2023-07-11T11:01:03.417Z,32.90
2023-07-11T11:02:03.330Z,32.90
2023-07-11T11:03:03.137Z,32.90
2023-07-11T11:04:03.547Z,33.00
2023-07-11T11:05:03.187Z,33.00
2023-07-11T11:06:03.077Z,33.00
2023-07-11T11:07:02.763Z,33.00
2023-07-11T11:08:03.581Z,33.00
2023-07-11T11:09:03.638Z,33.00
2023-07-11T11:10:03.253Z,33.00
2023-07-11T11:11:03.358Z,33.00
2023-07-11T11:12:03.131Z,33.00
2023-07-11T11:13:02.777Z,33.00
2023-07-11T11:14:03.380Z,33.00
2023-07-11T11:15:03.067Z,33.00
2023-07-11T11:16:02.837Z,33.00
2023-07-11T11:17:03.462Z,33.00
2023-07-11T11:18:03.679Z,33.00
2023-07-11T11:19:04.602Z,33.10
2023-07-11T11:20:03.022Z,33.10
2023-07-11T11:21:13.231Z,33.10
2023-07-11T11:22:02.667Z,33.20
2023-07-11T11:23:03.343Z,33.20
2023-07-11T11:24:03.052Z,33.20
2023-07-11T11:25:02.687Z,33.20
2023-07-11T11:26:02.772Z,33.20
2023-07-11T11:27:03.558Z,33.30
2023-07-11T11:28:03.119Z,33.30
2023-07-11T11:29:03.207Z,33.30
2023-07-11T11:30:02.994Z,33.40
2023-07-11T11:31:03.518Z,33.40
2023-07-11T11:32:03.214Z,33.40
2023-07-11T11:33:03.442Z,33.50
2023-07-11T11:34:03.592Z,33.50
2023-07-11T11:35:15.019Z,33.50
2023-07-11T11:36:03.054Z,33.60
2023-07-11T11:37:02.720Z,33.60
2023-07-11T11:38:02.778Z,33.60
2023-07-11T11:39:03.366Z,33.60
2023-07-11T11:40:03.459Z,33.70
2023-07-11T11:41:02.984Z,33.70
2023-07-11T11:42:03.149Z,33.70
2023-07-11T11:43:02.762Z,33.70
2023-07-11T11:46:28.871Z,33.70
2023-07-11T11:47:07.134Z,33.70
2023-07-11T11:52:03.002Z,33.70
2023-07-11T11:53:02.771Z,33.70
2023-07-11T11:54:03.441Z,33.70
2023-07-11T11:55:03.472Z,33.70
2023-07-11T11:56:14.949Z,33.70
2023-07-11T11:57:02.877Z,33.70
2023-07-11T11:58:03.608Z,33.70
2023-07-11T11:59:03.143Z,33.70
2023-07-11T12:00:02.864Z,33.70
2023-07-11T12:01:02.854Z,33.70
2023-07-11T12:02:03.439Z,33.70
2023-07-11T12:03:03.083Z,33.70
2023-07-11T12:04:02.834Z,33.80
2023-07-11T12:05:03.633Z,33.80
2023-07-11T12:06:03.250Z,33.80
2023-07-11T12:07:02.910Z,33.80
2023-07-11T12:08:03.159Z,33.80
2023-07-11T12:09:02.901Z,33.80
2023-07-11T12:10:03.125Z,33.80
2023-07-11T12:11:03.426Z,33.80
2023-07-11T12:12:02.853Z,33.80
2023-07-11T12:13:02.951Z,33.80
2023-07-11T12:14:03.648Z,33.80
2023-07-11T12:15:03.154Z,33.70
2023-07-11T12:16:02.791Z,33.70
2023-07-11T12:17:02.991Z,33.70
2023-07-11T12:18:02.905Z,33.70
2023-07-11T12:19:02.665Z,33.70
2023-07-11T12:20:02.849Z,33.70
2023-07-11T12:21:03.558Z,33.70
2023-07-11T12:22:03.613Z,33.70
2023-07-11T12:23:08.631Z,33.70
2023-07-11T12:24:40.377Z,33.70
2023-07-11T12:25:03.416Z,33.70
2023-07-11T12:26:03.142Z,33.60
2023-07-11T12:27:02.819Z,33.60
2023-07-11T12:28:03.604Z,33.60
2023-07-11T12:29:03.242Z,33.50
2023-07-11T12:30:03.024Z,33.50
2023-07-11T12:31:02.743Z,33.50
2023-07-11T12:32:03.327Z,33.50
2023-07-11T12:33:03.051Z,33.50
2023-07-11T12:34:03.195Z,33.50
2023-07-11T12:35:03.099Z,33.60
2023-07-11T12:36:02.695Z,33.60
2023-07-11T12:37:03.507Z,33.60
2023-07-11T12:38:03.099Z,33.60
2023-07-11T12:39:02.750Z,33.60
2023-07-11T12:40:03.242Z,33.60
2023-07-11T12:41:03.113Z,33.60
2023-07-11T12:42:02.835Z,33.60
2023-07-11T12:43:03.485Z,33.60
2023-07-11T12:44:03.458Z,33.60
2023-07-11T12:45:03.519Z,33.60
2023-07-11T12:46:02.737Z,33.60
2023-07-11T12:47:03.317Z,33.60
2023-07-11T12:48:02.985Z,33.70
2023-07-11T12:49:03.022Z,33.70
2023-07-11T12:50:03.587Z,33.70
2023-07-11T12:51:03.239Z,33.70
2023-07-11T12:52:03.465Z,33.80
2023-07-11T12:53:02.820Z,33.80
2023-07-11T12:54:03.166Z,33.80
2023-07-11T12:55:02.666Z,33.90
2023-07-11T12:56:02.939Z,33.90
2023-07-11T12:57:03.504Z,33.90
2023-07-11T12:58:03.186Z,33.90
2023-07-11T12:59:03.264Z,33.90